Time;durP1;ratioP1;P1;durP2;ratioP2;P2;SDS_P1;SDS_P2;PMS_P1;PMS_P2;Temp;Humidity;BMP_temperature;BMP_pressure;BME280_temperature;BME280_humidity;BME280_pressure;Samples;Min_cycle;Max_cycle;Signal;HPM_P1;HPM_P2
2022/08/29 00:00:01;;;;;;;5.00;1.30;;;16.40;70.60;;;;;;5034275;28;20529;-28
2022/08/29 00:02:26;;;;;;;4.25;1.40;;;16.30;70.60;;;;;;5034237;28;20029;-28
2022/08/29 00:04:52;;;;;;;2.30;0.93;;;16.30;70.60;;;;;;5034227;28;20026;-29
2022/08/29 00:07:18;;;;;;;3.20;1.10;;;16.30;70.60;;;;;;5034170;28;20049;-28
2022/08/29 00:09:43;;;;;;;3.47;1.08;;;16.30;70.70;;;;;;5034099;28;20086;-29
2022/08/29 00:12:09;;;;;;;3.35;1.00;;;16.30;70.80;;;;;;5032699;28;20030;-31
2022/08/29 00:14:35;;;;;;;2.05;1.00;;;16.20;70.70;;;;;;5033967;28;20024;-28
2022/08/29 00:17:01;;;;;;;2.35;1.13;;;16.20;70.80;;;;;;5034491;28;20454;-30
2022/08/29 00:19:27;;;;;;;3.17;1.08;;;16.20;70.80;;;;;;5033932;28;20024;-31
2022/08/29 00:21:52;;;;;;;4.93;1.40;;;16.20;70.80;;;;;;5033863;28;20553;-30
2022/08/29 00:24:18;;;;;;;3.60;1.17;;;16.20;70.70;;;;;;5034001;28;20049;-28
2022/08/29 00:26:44;;;;;;;2.00;1.10;;;16.20;70.80;;;;;;5034268;28;20029;-29
2022/08/29 00:29:10;;;;;;;3.72;1.08;;;16.20;70.80;;;;;;5033869;28;20481;-32
2022/08/29 00:31:36;;;;;;;3.65;1.20;;;16.10;70.90;;;;;;5033687;28;20056;-29
2022/08/29 00:34:02;;;;;;;3.33;1.30;;;16.10;70.90;;;;;;5033756;28;20014;-32
2022/08/29 00:36:27;;;;;;;2.42;1.10;;;16.00;70.90;;;;;;5033723;28;20026;-28
2022/08/29 00:38:53;;;;;;;3.22;0.95;;;16.00;71.00;;;;;;5033482;28;20025;-29
2022/08/29 00:41:19;;;;;;;1.95;1.05;;;16.00;71.00;;;;;;5033624;28;20021;-29
2022/08/29 00:43:44;;;;;;;3.20;1.33;;;16.00;71.10;;;;;;5033329;28;20037;-28
2022/08/29 00:46:31;;;;;;;2.70;1.20;;;16.00;71.10;;;;;;5033566;28;20025;-29
2022/08/29 00:49:02;;;;;;;3.03;0.98;;;16.00;71.20;;;;;;5031935;28;20030;-28
2022/08/29 00:51:28;;;;;;;2.92;1.08;;;15.90;71.20;;;;;;5033153;28;20026;-29
2022/08/29 00:53:59;;;;;;;2.45;1.10;;;15.90;71.20;;;;;;5032836;28;20032;-35
2022/08/29 00:56:26;;;;;;;5.00;2.25;;;15.90;71.20;;;;;;5033372;28;20052;-30
2022/08/29 00:58:58;;;;;;;1.67;1.13;;;15.90;71.80;;;;;;5033801;28;20033;-29
2022/08/29 01:01:23;;;;;;;1.92;1.10;;;16.00;71.30;;;;;;5033105;28;20034;-30
2022/08/29 01:03:50;;;;;;;1.95;0.95;;;15.90;71.20;;;;;;5033158;28;20167;-30
2022/08/29 01:06:16;;;;;;;1.98;1.20;;;15.90;71.20;;;;;;5033122;28;20021;-28
2022/08/29 01:08:43;;;;;;;3.17;1.02;;;16.00;71.30;;;;;;5032921;28;20230;-31
2022/08/29 01:13:57;;;;;;;2.75;1.13;;;16.00;71.20;;;;;;5033418;28;20152;-29
2022/08/29 01:16:25;;;;;;;2.50;1.27;;;16.00;71.10;;;;;;5031604;28;20103;-29
2022/08/29 01:18:53;;;;;;;2.75;1.08;;;16.00;71.00;;;;;;5032858;28;20489;-42
2022/08/29 01:21:38;;;;;;;3.45;1.40;;;16.00;71.00;;;;;;5032913;28;20496;-29
2022/08/29 01:24:35;;;;;;;1.13;0.95;;;16.00;71.00;;;;;;5033361;28;20040;-29
2022/08/29 01:27:01;;;;;;;2.25;1.30;;;16.00;71.00;;;;;;5033189;28;20025;-29
2022/08/29 01:29:27;;;;;;;4.97;1.55;;;16.00;71.00;;;;;;5032778;28;20036;-29
2022/08/29 01:31:54;;;;;;;2.78;1.25;;;16.00;71.00;;;;;;5032800;28;20033;-29
2022/08/29 01:34:20;;;;;;;3.15;1.30;;;16.00;71.10;;;;;;5033007;28;20021;-31
2022/08/29 01:36:52;;;;;;;4.05;1.42;;;16.00;71.00;;;;;;5032677;28;20036;-29
2022/08/29 01:39:20;;;;;;;3.20;1.13;;;16.00;71.00;;;;;;5033019;28;20357;-29
2022/08/29 01:41:46;;;;;;;6.80;1.38;;;16.00;70.90;;;;;;5032906;28;20025;-29
2022/08/29 01:44:18;;;;;;;2.72;1.05;;;16.00;70.90;;;;;;5032353;28;20102;-28
2022/08/29 01:46:49;;;;;;;2.72;1.58;;;16.00;70.80;;;;;;5032539;28;20441;-31
2022/08/29 01:49:17;;;;;;;3.63;1.10;;;16.00;70.80;;;;;;5032289;28;20367;-28
2022/08/29 01:51:42;;;;;;;3.47;1.17;;;16.00;70.80;;;;;;5032201;28;20496;-28
2022/08/29 01:54:09;;;;;;;3.17;1.40;;;16.00;70.80;;;;;;5032257;28;20018;-30
2022/08/29 01:56:45;;;;;;;3.83;1.30;;;16.00;70.80;;;;;;5032443;28;20013;-28
2022/08/29 01:59:15;;;;;;;2.13;1.20;;;16.00;70.90;;;;;;5032676;28;20024;-29
2022/08/29 02:01:52;;;;;;;3.42;1.30;;;16.00;70.80;;;;;;5032001;28;20025;-29
2022/08/29 02:04:18;;;;;;;8.40;1.60;;;15.90;70.80;;;;;;5031583;28;20041;-29
2022/08/29 02:06:44;;;;;;;3.67;1.48;;;15.90;70.80;;;;;;5032101;28;20405;-28
2022/08/29 02:09:10;;;;;;;3.72;1.45;;;15.90;70.80;;;;;;5032395;28;20040;-31
2022/08/29 02:11:37;;;;;;;6.60;1.90;;;15.90;70.90;;;;;;5032312;28;20021;-28
2022/08/29 02:14:03;;;;;;;3.95;1.38;;;15.80;70.80;;;;;;5032189;28;20040;-28
2022/08/29 02:16:30;;;;;;;3.25;1.60;;;15.80;70.80;;;;;;5032131;28;20025;-29
2022/08/29 02:18:56;;;;;;;4.93;1.52;;;15.80;70.80;;;;;;5032876;28;20029;-29
2022/08/29 02:21:24;;;;;;;4.75;2.20;;;15.80;70.80;;;;;;5031959;28;20515;-28
2022/08/29 02:23:50;;;;;;;3.90;1.52;;;15.80;70.80;;;;;;5032098;28;20076;-29
2022/08/29 02:26:17;;;;;;;2.65;1.75;;;15.80;70.60;;;;;;5032084;28;20033;-28
2022/08/29 02:28:43;;;;;;;4.82;1.75;;;15.80;70.50;;;;;;5031833;28;20504;-28
2022/08/29 02:31:09;;;;;;;3.42;1.75;;;15.80;70.50;;;;;;5031794;28;20021;-28
2022/08/29 02:33:36;;;;;;;5.40;1.98;;;15.80;70.50;;;;;;5031972;28;20398;-28
2022/08/29 02:36:04;;;;;;;4.72;2.00;;;15.70;70.40;;;;;;5032306;28;20044;-29
2022/08/29 02:38:30;;;;;;;3.25;2.20;;;15.70;70.40;;;;;;5032155;28;20242;-28
2022/08/29 02:40:56;;;;;;;4.82;2.08;;;15.70;70.30;;;;;;5032064;28;20506;-30
2022/08/29 02:43:23;;;;;;;3.50;1.80;;;15.70;70.20;;;;;;5031991;28;20038;-29
2022/08/29 02:45:48;;;;;;;2.50;1.90;;;15.70;70.20;;;;;;5031960;28;20033;-28
2022/08/29 02:48:14;;;;;;;3.85;2.00;;;15.70;70.20;;;;;;5031772;28;20507;-28
2022/08/29 02:50:42;;;;;;;5.60;2.30;;;15.70;70.10;;;;;;5031983;28;20451;-28
2022/08/29 02:53:08;;;;;;;4.95;2.10;;;15.70;70.00;;;;;;5031699;28;20080;-29
2022/08/29 02:55:34;;;;;;;4.15;2.17;;;15.70;69.90;;;;;;5031497;28;20033;-30
2022/08/29 02:58:00;;;;;;;3.70;2.10;;;15.70;69.90;;;;;;5031791;28;20039;-29
2022/08/29 03:00:26;;;;;;;4.10;2.47;;;15.70;69.90;;;;;;5031677;28;20024;-29
2022/08/29 03:02:53;;;;;;;3.40;1.90;;;15.60;69.80;;;;;;5031940;28;20025;-28
2022/08/29 03:05:22;;;;;;;5.28;2.10;;;15.60;69.80;;;;;;5030316;28;20025;-28
2022/08/29 03:07:47;;;;;;;4.05;2.38;;;15.60;69.70;;;;;;5031212;28;20428;-29
2022/08/29 03:10:13;;;;;;;4.13;2.30;;;15.60;69.70;;;;;;5031666;28;20159;-28
2022/08/29 03:12:39;;;;;;;4.90;2.35;;;15.50;69.60;;;;;;5031271;28;20041;-28
2022/08/29 03:15:07;;;;;;;3.75;2.22;;;15.50;69.70;;;;;;5031572;28;20341;-30
2022/08/29 03:17:33;;;;;;;4.68;2.10;;;15.50;69.60;;;;;;5034999;28;20069;-28
2022/08/29 03:19:59;;;;;;;3.45;2.00;;;15.50;69.50;;;;;;5034824;28;20029;-29
2022/08/29 03:22:26;;;;;;;5.40;2.53;;;15.50;69.50;;;;;;5035195;28;20030;-28
2022/08/29 03:24:52;;;;;;;4.72;2.40;;;15.50;69.40;;;;;;5033795;28;20083;-29
2022/08/29 03:27:18;;;;;;;4.68;2.60;;;15.50;69.40;;;;;;5034802;28;20025;-28
2022/08/29 03:29:44;;;;;;;5.35;2.58;;;15.50;69.30;;;;;;5034773;28;20057;-29
2022/08/29 03:32:10;;;;;;;3.47;2.10;;;15.50;69.20;;;;;;5034785;28;20061;-27
2022/08/29 03:34:36;;;;;;;4.22;2.42;;;15.50;69.10;;;;;;5034612;28;20053;-29
2022/08/29 03:37:02;;;;;;;6.07;2.78;;;15.50;69.10;;;;;;5033658;28;20073;-27
2022/08/29 03:39:28;;;;;;;4.45;2.80;;;15.50;69.00;;;;;;5034644;28;20507;-28
2022/08/29 03:41:54;;;;;;;6.18;2.53;;;15.50;68.90;;;;;;5034719;28;20029;-30
2022/08/29 03:44:20;;;;;;;4.05;2.47;;;15.50;68.90;;;;;;5034774;28;20037;-29
2022/08/29 03:46:46;;;;;;;4.70;2.40;;;15.50;68.80;;;;;;5034711;28;20033;-28
2022/08/29 03:49:11;;;;;;;4.65;2.60;;;15.60;68.80;;;;;;5034717;28;20029;-31
2022/08/29 03:51:38;;;;;;;5.03;2.60;;;15.60;68.60;;;;;;5034188;28;20026;-28
2022/08/29 03:54:05;;;;;;;5.45;2.78;;;15.60;68.50;;;;;;5034405;28;20116;-28
2022/08/29 03:56:31;;;;;;;5.15;3.03;;;15.60;68.50;;;;;;5034266;28;20109;-29
2022/08/29 03:58:57;;;;;;;5.32;2.70;;;15.70;68.50;;;;;;5034210;28;20029;-28
2022/08/29 04:01:27;;;;;;;3.97;2.50;;;15.70;68.30;;;;;;5034639;28;20396;-28
2022/08/29 04:03:54;;;;;;;4.07;2.53;;;15.80;68.20;;;;;;5032967;28;20457;-33
2022/08/29 04:06:22;;;;;;;4.72;2.70;;;15.80;68.00;;;;;;5034457;28;20131;-32
2022/08/29 04:08:48;;;;;;;4.32;2.50;;;15.80;68.20;;;;;;5034066;28;20060;-28
2022/08/29 04:11:15;;;;;;;4.45;2.58;;;15.90;67.80;;;;;;5034162;28;20179;-28
2022/08/29 04:13:41;;;;;;;5.22;2.50;;;15.90;67.70;;;;;;5033874;28;20103;-30
2022/08/29 04:16:15;;;;;;;4.22;2.50;;;15.90;67.60;;;;;;5033908;28;20447;-31
2022/08/29 04:18:41;;;;;;;4.63;2.60;;;16.00;67.50;;;;;;5033706;28;20029;-32
2022/08/29 04:21:08;;;;;;;5.60;2.47;;;16.00;67.40;;;;;;5032982;28;20029;-28
2022/08/29 04:23:35;;;;;;;5.95;2.90;;;16.00;67.30;;;;;;5033706;28;20071;-28
2022/08/29 04:26:01;;;;;;;4.90;2.28;;;16.10;67.20;;;;;;5033788;28;20051;-29
2022/08/29 04:28:26;;;;;;;6.15;2.75;;;16.10;67.00;;;;;;5032986;28;20041;-29
2022/08/29 04:30:53;;;;;;;5.63;2.55;;;16.10;66.90;;;;;;5033497;28;20091;-28
2022/08/29 04:33:21;;;;;;;5.20;2.67;;;16.10;66.90;;;;;;5032219;28;20064;-30
2022/08/29 04:35:47;;;;;;;4.05;2.58;;;16.10;66.80;;;;;;5033488;28;20433;-29
2022/08/29 04:38:13;;;;;;;4.88;2.45;;;16.10;66.80;;;;;;5033429;28;20064;-29
2022/08/29 04:40:40;;;;;;;4.47;2.33;;;16.20;66.80;;;;;;5033368;28;20088;-29
2022/08/29 04:43:06;;;;;;;4.85;2.50;;;16.10;66.70;;;;;;5033631;28;20025;-29
2022/08/29 04:45:34;;;;;;;4.03;2.55;;;16.10;66.70;;;;;;5031977;28;20520;-29
2022/08/29 04:48:02;;;;;;;5.05;2.58;;;16.20;66.80;;;;;;5033838;28;20025;-28
2022/08/29 04:50:28;;;;;;;4.30;2.30;;;16.20;66.80;;;;;;5033297;28;20033;-30
2022/08/29 04:52:54;;;;;;;5.47;2.50;;;16.20;66.70;;;;;;5033407;28;20096;-31
2022/08/29 04:55:22;;;;;;;4.60;2.20;;;16.20;66.70;;;;;;5033862;28;20516;-30
2022/08/29 04:57:49;;;;;;;4.78;2.30;;;16.20;66.60;;;;;;5033360;28;20059;-28
2022/08/29 05:00:18;;;;;;;3.67;2.38;;;16.20;66.50;;;;;;5033537;28;20017;-31
2022/08/29 05:02:44;;;;;;;5.88;2.42;;;16.20;66.40;;;;;;5033431;28;20080;-31
2022/08/29 05:05:12;;;;;;;4.35;2.35;;;16.30;66.40;;;;;;5033288;28;20034;-29
2022/08/29 05:07:39;;;;;;;4.38;2.30;;;16.30;66.40;;;;;;5032979;28;20497;-28
2022/08/29 05:10:09;;;;;;;4.72;2.60;;;16.30;66.30;;;;;;5033179;28;20034;-28
2022/08/29 05:12:35;;;;;;;4.05;2.20;;;16.40;66.20;;;;;;5033035;28;20045;-29
2022/08/29 05:15:00;;;;;;;5.38;2.20;;;16.40;66.10;;;;;;5033182;28;20040;-30
2022/08/29 05:17:26;;;;;;;4.55;2.60;;;16.40;66.10;;;;;;5033226;28;20365;-30
2022/08/29 05:19:53;;;;;;;4.43;2.30;;;16.40;66.00;;;;;;5032916;28;20422;-28
2022/08/29 05:22:19;;;;;;;5.20;2.55;;;16.50;66.00;;;;;;5032762;28;20026;-28
2022/08/29 05:24:46;;;;;;;4.72;2.33;;;16.50;65.90;;;;;;5033157;28;20430;-29
2022/08/29 05:27:14;;;;;;;4.57;2.45;;;16.60;65.90;;;;;;5032848;28;20079;-28
2022/08/29 05:29:41;;;;;;;6.65;2.40;;;16.60;65.80;;;;;;5032666;28;20040;-31
2022/08/29 05:32:09;;;;;;;5.43;2.45;;;16.60;65.80;;;;;;5032676;28;20196;-29
2022/08/29 05:34:35;;;;;;;3.75;2.10;;;16.60;65.90;;;;;;5032914;28;20021;-28
2022/08/29 05:37:13;;;;;;;5.40;2.50;;;16.60;65.80;;;;;;5032769;28;20504;-28
2022/08/29 05:39:39;;;;;;;5.35;2.30;;;16.60;65.80;;;;;;5032755;28;20052;-28
2022/08/29 05:42:06;;;;;;;2.65;2.00;;;16.60;65.80;;;;;;5032546;28;20133;-28
2022/08/29 05:44:33;;;;;;;3.47;2.03;;;16.70;65.80;;;;;;5032526;28;20088;-29
2022/08/29 05:46:59;;;;;;;4.38;2.30;;;16.70;65.70;;;;;;5032685;28;20453;-28
2022/08/29 05:49:26;;;;;;;3.33;2.08;;;16.80;65.60;;;;;;5032842;28;20072;-30
2022/08/29 05:51:55;;;;;;;4.30;2.33;;;16.70;65.40;;;;;;5032542;28;20087;-30
2022/08/29 05:54:23;;;;;;;2.88;1.90;;;16.80;65.40;;;;;;5032439;28;20041;-27
2022/08/29 05:56:49;;;;;;;5.85;2.40;;;16.80;65.30;;;;;;5032307;28;20040;-29
2022/08/29 05:59:18;;;;;;;4.93;2.22;;;16.80;65.40;;;;;;5030764;28;20033;-28
2022/08/29 06:01:45;;;;;;;3.53;2.17;;;16.70;65.30;;;;;;5032089;28;20025;-27
2022/08/29 06:04:11;;;;;;;4.80;2.50;;;16.80;65.20;;;;;;5032254;28;20029;-28
2022/08/29 06:06:40;;;;;;;6.38;2.42;;;16.70;65.20;;;;;;5032012;28;20480;-30
2022/08/29 06:09:06;;;;;;;3.40;2.10;;;16.70;65.30;;;;;;5032179;28;20041;-28
2022/08/29 06:11:33;;;;;;;13.35;3.03;;;16.70;65.40;;;;;;5031865;28;20049;-29
2022/08/29 06:14:00;;;;;;;4.13;2.38;;;16.70;65.40;;;;;;5031908;28;20033;-27
2022/08/29 06:16:27;;;;;;;4.22;2.42;;;16.60;65.50;;;;;;5030760;28;20021;-31
2022/08/29 06:18:53;;;;;;;7.80;2.20;;;16.60;65.60;;;;;;5031649;28;20393;-29
2022/08/29 06:21:20;;;;;;;5.13;2.50;;;16.70;65.60;;;;;;5031895;28;20057;-29
2022/08/29 06:23:47;;;;;;;4.72;2.33;;;16.80;65.50;;;;;;5031597;28;20481;-28
2022/08/29 06:26:13;;;;;;;5.03;2.30;;;16.80;65.40;;;;;;5032012;28;20120;-27
2022/08/29 06:28:44;;;;;;;5.78;2.60;;;16.80;65.40;;;;;;5031771;28;20030;-27
2022/08/29 06:31:13;;;;;;;5.10;2.05;;;16.80;65.40;;;;;;5031944;28;20025;-29
2022/08/29 06:33:38;;;;;;;6.90;3.00;;;16.80;65.40;;;;;;5031836;28;20029;-28
2022/08/29 06:36:06;;;;;;;6.97;2.45;;;16.90;65.30;;;;;;5031859;28;20072;-29
2022/08/29 06:38:32;;;;;;;7.93;2.50;;;17.00;65.30;;;;;;5031679;28;20030;-27
2022/08/29 06:41:09;;;;;;;7.07;2.33;;;17.00;65.20;;;;;;5031611;28;20037;-28
2022/08/29 06:43:35;;;;;;;7.80;2.33;;;17.10;65.00;;;;;;5030162;28;20491;-27
2022/08/29 06:46:01;;;;;;;6.20;2.30;;;17.20;64.80;;;;;;5031916;28;20116;-28
2022/08/29 06:48:27;;;;;;;5.13;2.40;;;17.30;64.80;;;;;;5031703;28;20044;-28
2022/08/29 06:50:53;;;;;;;5.65;2.03;;;17.30;64.70;;;;;;5032228;28;20025;-27
2022/08/29 06:53:19;;;;;;;4.03;1.90;;;17.40;65.30;;;;;;5035692;28;20025;-32
2022/08/29 06:55:45;;;;;;;3.63;2.08;;;17.40;64.50;;;;;;5035312;28;20108;-27
2022/08/29 06:58:11;;;;;;;6.65;2.30;;;17.50;64.40;;;;;;5035485;28;20029;-28
2022/08/29 07:00:41;;;;;;;6.63;2.20;;;17.60;64.30;;;;;;5035341;28;20025;-28
2022/08/29 07:03:07;;;;;;;4.35;1.85;;;17.80;64.20;;;;;;5035537;28;20106;-27
2022/08/29 07:05:33;;;;;;;3.38;1.92;;;17.90;64.00;;;;;;5035607;28;20533;-27
2022/08/29 07:07:58;;;;;;;4.78;2.22;;;17.90;63.80;;;;;;5035489;28;20152;-27
2022/08/29 07:10:24;;;;;;;3.47;1.73;;;18.00;63.70;;;;;;5035220;28;20385;-28
2022/08/29 07:12:51;;;;;;;3.42;1.95;;;18.10;63.60;;;;;;5034982;28;20034;-27
2022/08/29 07:15:17;;;;;;;4.25;2.13;;;18.20;63.50;;;;;;5035062;28;20111;-27
2022/08/29 07:17:43;;;;;;;4.22;1.92;;;18.20;63.40;;;;;;5034867;28;20056;-28
2022/08/29 07:20:09;;;;;;;3.13;1.90;;;18.30;63.20;;;;;;5034839;28;20505;-32
2022/08/29 07:22:35;;;;;;;4.55;2.05;;;18.40;63.10;;;;;;5035190;28;20022;-28
2022/08/29 07:25:01;;;;;;;3.85;2.20;;;18.50;63.00;;;;;;5034933;28;20088;-27
2022/08/29 07:27:26;;;;;;;2.80;2.03;;;18.50;62.80;;;;;;5035139;28;20029;-30
2022/08/29 07:29:52;;;;;;;4.40;1.98;;;18.60;62.60;;;;;;5034582;28;20033;-28
2022/08/29 07:32:18;;;;;;;3.70;1.98;;;18.60;62.60;;;;;;5033175;28;20112;-29
2022/08/29 07:34:43;;;;;;;3.97;2.10;;;18.70;62.60;;;;;;5033058;28;20033;-27
2022/08/29 07:37:09;;;;;;;5.13;1.90;;;18.70;62.40;;;;;;5033220;28;20091;-28
2022/08/29 07:39:35;;;;;;;4.28;1.90;;;18.80;62.40;;;;;;5034701;28;20022;-29
2022/08/29 07:42:03;;;;;;;3.70;2.00;;;18.90;62.10;;;;;;5034644;28;20409;-29
2022/08/29 07:44:28;;;;;;;4.28;1.92;;;18.90;62.10;;;;;;5034403;28;20068;-26
2022/08/29 07:46:55;;;;;;;2.25;1.75;;;19.00;62.10;;;;;;5034433;28;20088;-28
2022/08/29 07:49:22;;;;;;;3.83;1.83;;;19.00;62.00;;;;;;5035086;28;20133;-32
2022/08/29 07:51:49;;;;;;;5.32;2.63;;;19.10;61.90;;;;;;5034959;28;20025;-28
2022/08/29 07:54:17;;;;;;;5.07;2.00;;;19.10;61.90;;;;;;5034356;28;20116;-28
2022/08/29 07:56:44;;;;;;;4.80;1.80;;;19.10;61.90;;;;;;5034267;28;20111;-28
2022/08/29 07:59:10;;;;;;;2.72;1.65;;;19.20;62.00;;;;;;5034384;28;20036;-29
2022/08/29 08:01:36;;;;;;;2.63;1.90;;;19.20;62.10;;;;;;5034270;28;20112;-28
2022/08/29 08:04:02;;;;;;;2.65;1.60;;;19.20;61.90;;;;;;5033123;28;20117;-28
2022/08/29 08:06:28;;;;;;;2.88;1.90;;;19.30;61.90;;;;;;5034370;28;20033;-28
2022/08/29 08:08:54;;;;;;;3.15;2.03;;;19.30;61.90;;;;;;5033148;28;20030;-28
2022/08/29 08:11:21;;;;;;;4.00;1.90;;;19.30;61.90;;;;;;5034242;28;20048;-28
2022/08/29 08:13:47;;;;;;;2.88;1.90;;;19.30;62.00;;;;;;5034002;28;20108;-28
2022/08/29 08:16:15;;;;;;;4.43;2.15;;;19.40;62.00;;;;;;5034368;28;20100;-28
2022/08/29 08:18:42;;;;;;;4.03;1.92;;;19.40;61.90;;;;;;5033959;28;20053;-27
2022/08/29 08:21:09;;;;;;;3.65;1.67;;;19.50;61.90;;;;;;5033797;28;20037;-29
2022/08/29 08:23:35;;;;;;;4.13;1.80;;;19.60;61.90;;;;;;5033795;28;20480;-27
2022/08/29 08:26:01;;;;;;;3.70;1.70;;;19.70;61.70;;;;;;5034039;28;20132;-28
2022/08/29 08:28:29;;;;;;;1.83;1.52;;;19.80;61.70;;;;;;5033998;28;20611;-30
2022/08/29 08:30:55;;;;;;;2.25;1.55;;;19.90;61.50;;;;;;5034135;28;20034;-27
2022/08/29 08:33:21;;;;;;;2.50;1.70;;;20.00;61.40;;;;;;5034249;28;20033;-31
2022/08/29 08:35:47;;;;;;;2.25;1.48;;;19.90;61.20;;;;;;5034286;28;20053;-27
2022/08/29 08:38:13;;;;;;;3.70;1.95;;;19.90;61.10;;;;;;5034086;28;20044;-27
2022/08/29 08:40:44;;;;;;;2.20;1.50;;;20.00;61.10;;;;;;5033950;28;20036;-28
2022/08/29 08:43:15;;;;;;;3.80;1.88;;;20.00;60.90;;;;;;5033685;28;20030;-27
2022/08/29 08:45:42;;;;;;;2.88;1.80;;;20.10;60.90;;;;;;5033917;28;20097;-29
2022/08/29 08:48:16;;;;;;;4.53;1.80;;;20.10;60.20;;;;;;5033787;28;20037;-30
2022/08/29 08:50:58;;;;;;;4.32;1.75;;;20.10;60.20;;;;;;5033442;28;20047;-27
2022/08/29 08:53:26;;;;;;;4.13;2.03;;;20.10;60.00;;;;;;5033502;28;20045;-33
2022/08/29 08:55:54;;;;;;;3.53;2.00;;;20.10;59.70;;;;;;5033684;28;20036;-28
2022/08/29 08:58:23;;;;;;;2.60;1.50;;;20.10;59.50;;;;;;5033585;28;20104;-29
2022/08/29 09:01:00;;;;;;;3.53;1.73;;;20.10;59.30;;;;;;5032041;28;20053;-28
2022/08/29 09:03:56;;;;;;;3.58;1.90;;;20.20;59.20;;;;;;5033456;28;20036;-29
2022/08/29 09:06:30;;;;;;;3.97;1.70;;;20.30;59.10;;;;;;5033742;28;20102;-28
2022/08/29 09:09:12;;;;;;;3.80;1.83;;;20.40;58.80;;;;;;5033579;28;20037;-29
2022/08/29 09:11:44;;;;;;;3.30;1.92;;;20.60;58.40;;;;;;5032758;28;20370;-29
2022/08/29 09:14:54;;;;;;;2.83;1.80;;;20.60;58.10;;;;;;5032489;28;20087;-28
2022/08/29 09:17:25;;;;;;;4.45;1.70;;;20.70;57.90;;;;;;5032587;28;20469;-29
2022/08/29 09:19:51;;;;;;;5.75;1.85;;;20.80;58.00;;;;;;5031266;28;20025;-31
2022/08/29 09:22:25;;;;;;;3.30;1.60;;;20.90;58.10;;;;;;5032715;28;20036;-30
2022/08/29 09:24:56;;;;;;;3.58;1.80;;;20.90;58.20;;;;;;5032677;28;20048;-30
2022/08/29 09:27:25;;;;;;;3.47;1.73;;;21.00;58.40;;;;;;5032634;28;20041;-34
2022/08/29 09:30:12;;;;;;;2.15;1.50;;;20.90;58.50;;;;;;5032513;28;20040;-29
2022/08/29 09:32:52;;;;;;;4.90;2.03;;;21.10;58.50;;;;;;5032511;28;20116;-30
2022/08/29 09:35:24;;;;;;;2.33;1.63;;;21.10;58.20;;;;;;5032563;28;20025;-30
2022/08/29 09:38:16;;;;;;;3.13;1.55;;;21.20;58.20;;;;;;5032485;28;20060;-30
2022/08/29 09:40:59;;;;;;;4.20;1.50;;;21.30;58.20;;;;;;5032406;28;20032;-32
2022/08/29 09:43:27;;;;;;;4.27;1.53;;;21.30;58.10;;;;;;5032558;28;20062;-29
2022/08/29 09:46:17;;;;;;;3.05;1.70;;;21.20;58.20;;;;;;5032190;28;20359;-29
2022/08/29 09:49:10;;;;;;;4.93;1.55;;;21.30;58.50;;;;;;5031979;28;20036;-33
2022/08/29 09:51:39;;;;;;;4.63;1.95;;;21.30;58.70;;;;;;5025681;28;20128;-31
2022/08/29 09:54:24;;;;;;;3.13;1.58;;;21.30;58.70;;;;;;5032453;28;20033;-35
2022/08/29 09:56:53;;;;;;;4.03;1.58;;;21.40;58.70;;;;;;5031861;28;20021;-28
2022/08/29 09:59:29;;;;;;;2.78;1.52;;;21.40;58.20;;;;;;5031993;28;20040;-28
2022/08/29 10:02:25;;;;;;;3.80;1.83;;;21.40;58.00;;;;;;5032175;28;20489;-29
2022/08/29 10:04:58;;;;;;;2.40;1.33;;;21.40;58.10;;;;;;5032260;28;20056;-28
2022/08/29 10:07:45;;;;;;;5.93;1.65;;;21.40;58.10;;;;;;5032492;28;20053;-28
2022/08/29 10:10:17;;;;;;;2.97;1.50;;;21.50;58.10;;;;;;5032462;28;20022;-29
2022/08/29 10:12:52;;;;;;;4.43;1.40;;;21.60;58.30;;;;;;5032002;28;20465;-31
2022/08/29 10:15:25;;;;;;;3.10;1.38;;;21.60;58.10;;;;;;5032106;28;20021;-28
2022/08/29 10:18:27;;;;;;;1.90;1.30;;;21.60;58.30;;;;;;5032091;28;20097;-31
2022/08/29 10:21:23;;;;;;;2.88;1.25;;;21.60;58.30;;;;;;5032851;28;20263;-28
2022/08/29 10:24:10;;;;;;;2.60;1.10;;;21.70;58.30;;;;;;5004573;28;20041;-31
2022/08/29 10:26:49;;;;;;;4.13;1.27;;;21.70;58.40;;;;;;5033834;28;20080;-28
2022/08/29 10:29:27;;;;;;;3.25;1.25;;;21.70;58.20;;;;;;5036142;28;20032;-29
2022/08/29 10:32:08;;;;;;;3.20;1.60;;;21.80;58.20;;;;;;5035850;28;20095;-31
2022/08/29 10:34:58;;;;;;;2.63;1.33;;;21.80;58.10;;;;;;5035584;28;20021;-28
2022/08/29 10:37:53;;;;;;;1.70;1.10;;;21.80;57.90;;;;;;5035906;28;20032;-31
2022/08/29 10:40:41;;;;;;;1.33;1.10;;;21.80;58.20;;;;;;5035799;28;20057;-33
2022/08/29 10:43:15;;;;;;;5.35;1.40;;;22.00;58.10;;;;;;5035904;28;20017;-34
2022/08/29 10:46:06;;;;;;;3.63;1.73;;;22.20;57.80;;;;;;5035572;28;20155;-29
2022/08/29 10:49:07;;;;;;;2.60;1.13;;;22.30;57.70;;;;;;5035900;28;20033;-29
2022/08/29 10:51:51;;;;;;;2.08;0.90;;;22.40;57.60;;;;;;5035313;28;20026;-29
2022/08/29 10:54:27;;;;;;;2.75;1.33;;;22.50;57.50;;;;;;5035439;28;20025;-30
2022/08/29 10:56:54;;;;;;;3.47;1.20;;;22.60;57.40;;;;;;5035500;28;20465;-29
2022/08/29 10:59:54;;;;;;;2.33;1.35;;;22.70;57.30;;;;;;5035222;28;20467;-29
2022/08/29 11:02:22;;;;;;;4.55;1.83;;;22.80;57.20;;;;;;5035252;28;20029;-29
2022/08/29 11:04:58;;;;;;;2.10;1.40;;;22.80;57.10;;;;;;5035488;28;20190;-29
2022/08/29 11:07:35;;;;;;;2.38;1.48;;;22.90;56.90;;;;;;5034737;28;20057;-28
2022/08/29 11:10:39;;;;;;;3.45;1.60;;;22.90;56.90;;;;;;5034922;28;20489;-31
2022/08/29 11:13:10;;;;;;;1.77;1.23;;;22.90;56.90;;;;;;5026200;28;20069;-29
2022/08/29 11:16:07;;;;;;;3.85;1.38;;;22.90;56.80;;;;;;5033372;28;20017;-29
2022/08/29 11:18:59;;;;;;;2.28;1.27;;;22.80;56.90;;;;;;5033714;28;20078;-31
2022/08/29 11:21:44;;;;;;;2.90;1.30;;;22.80;57.00;;;;;;5034962;28;20101;-28
2022/08/29 11:24:11;;;;;;;2.42;1.30;;;22.90;57.00;;;;;;5034805;28;20078;-29
2022/08/29 11:26:42;;;;;;;2.38;1.20;;;22.90;56.90;;;;;;5034567;28;20101;-28
2022/08/29 11:29:26;;;;;;;3.55;1.30;;;23.10;56.90;;;;;;5034561;28;20036;-30
2022/08/29 11:32:08;;;;;;;2.40;1.35;;;23.30;56.80;;;;;;5034440;28;20041;-28
2022/08/29 11:35:05;;;;;;;3.13;1.42;;;23.30;56.40;;;;;;5034591;28;20048;-28
2022/08/29 11:37:56;;;;;;;2.40;1.40;;;23.20;56.40;;;;;;5033582;28;20029;-29
2022/08/29 11:40:39;;;;;;;2.33;1.40;;;23.10;56.80;;;;;;5034588;28;20097;-29
2022/08/29 11:43:09;;;;;;;3.88;1.50;;;23.00;56.80;;;;;;5034378;28;20083;-30
2022/08/29 11:45:39;;;;;;;2.25;1.40;;;22.90;56.80;;;;;;5032938;28;20033;-29
2022/08/29 11:48:17;;;;;;;2.92;1.67;;;22.90;56.80;;;;;;5034932;28;20108;-31
2022/08/29 11:50:43;;;;;;;4.55;1.75;;;22.80;57.00;;;;;;5034147;28;20030;-30
2022/08/29 11:53:21;;;;;;;4.30;1.63;;;22.80;57.00;;;;;;5034376;28;20535;-29
2022/08/29 11:56:19;;;;;;;3.90;1.67;;;22.90;56.90;;;;;;5034489;28;20112;-30
2022/08/29 11:58:47;;;;;;;3.85;1.77;;;23.00;56.70;;;;;;5033999;28;20037;-27
2022/08/29 12:01:34;;;;;;;4.65;1.50;;;23.10;56.30;;;;;;5032642;28;20151;-27
2022/08/29 12:04:05;;;;;;;1.70;1.40;;;23.10;56.50;;;;;;5032892;28;20112;-27
2022/08/29 12:06:55;;;;;;;2.78;1.60;;;23.10;56.50;;;;;;5033738;28;20148;-27
2022/08/29 12:09:44;;;;;;;3.08;1.60;;;23.20;56.00;;;;;;5034278;28;20029;-25
2022/08/29 12:12:11;;;;;;;3.40;1.65;;;23.20;56.10;;;;;;5034260;28;20560;-26
2022/08/29 12:14:41;;;;;;;3.55;1.55;;;23.30;56.10;;;;;;5034564;28;20025;-28
2022/08/29 12:17:28;;;;;;;2.67;1.60;;;23.30;56.00;;;;;;5034458;28;20018;-24
2022/08/29 12:20:15;;;;;;;2.40;1.45;;;23.30;55.90;;;;;;5034048;28;20442;-26
2022/08/29 12:23:17;;;;;;;1.70;1.23;;;23.40;55.80;;;;;;5034038;28;20512;-41
2022/08/29 12:25:53;;;;;;;1.90;1.35;;;23.40;55.50;;;;;;5034428;28;20021;-43
2022/08/29 12:28:27;;;;;;;3.28;1.60;;;23.40;55.30;;;;;;5032760;28;20049;-42
2022/08/29 12:31:16;;;;;;;2.25;1.40;;;23.40;54.90;;;;;;5033965;28;20100;-37
2022/08/29 12:33:55;;;;;;;3.85;1.40;;;23.40;54.30;;;;;;5033805;28;20481;-41
2022/08/29 12:36:24;;;;;;;2.10;1.20;;;23.60;54.10;;;;;;5032848;28;20021;-42
2022/08/29 12:39:22;;;;;;;2.78;1.33;;;23.60;53.70;;;;;;5033994;28;20477;-39
2022/08/29 12:42:09;;;;;;;2.47;1.25;;;23.60;53.80;;;;;;5033806;28;20032;-44
2022/08/29 12:44:46;;;;;;;1.73;1.27;;;23.60;53.70;;;;;;5034153;28;20037;-43
2022/08/29 12:47:34;;;;;;;2.30;1.38;;;23.60;53.70;;;;;;5033903;28;20528;-44
2022/08/29 12:50:05;;;;;;;4.32;1.23;;;23.80;53.50;;;;;;5033251;28;20036;-42
2022/08/29 12:52:35;;;;;;;2.65;1.20;;;24.10;53.20;;;;;;5032396;28;20488;-42
2022/08/29 12:55:20;;;;;;;2.45;1.20;;;24.30;53.00;;;;;;5033981;28;20013;-44
2022/08/29 12:57:46;;;;;;;1.60;1.30;;;24.50;52.60;;;;;;5034042;28;20014;-43
2022/08/29 13:00:18;;;;;;;2.25;1.50;;;24.50;52.40;;;;;;5033821;28;20026;-45
2022/08/29 13:02:59;;;;;;;1.73;1.38;;;24.40;52.20;;;;;;5033502;28;20480;-44
2022/08/29 13:05:27;;;;;;;1.83;1.40;;;24.40;52.30;;;;;;5033836;28;20026;-43
2022/08/29 13:07:59;;;;;;;1.38;1.27;;;24.50;52.10;;;;;;5015932;28;20056;-44
2022/08/29 13:10:26;;;;;;;2.35;1.30;;;24.70;51.60;;;;;;5033450;28;20029;-43